Time;durP1;ratioP1;P1;durP2;ratioP2;P2;SDS_P1;SDS_P2;PMS_P1;PMS_P2;Temp;Humidity;BMP_temperature;BMP_pressure;BME280_temperature;BME280_humidity;BME280_pressure;Samples;Min_cycle;Max_cycle;Signal;HPM_P1;HPM_P2
2023/02/19 00:01:45;;;;;;;5.95;2.67;;;;;;;7.18;100.00;97823.31;5064119;28;20040;-64
2023/02/19 00:04:18;;;;;;;4.10;2.70;;;;;;;7.28;100.00;97824.47;5067893;28;20335;-64
2023/02/19 00:06:45;;;;;;;5.28;2.83;;;;;;;7.18;100.00;97818.72;5067504;28;20108;-64
2023/02/19 00:09:14;;;;;;;5.72;3.05;;;;;;;7.10;100.00;97814.44;5071646;28;20044;-64
2023/02/19 00:11:41;;;;;;;5.13;2.92;;;;;;;7.15;100.00;97808.41;5073164;28;20032;-64
2023/02/19 00:14:10;;;;;;;4.85;2.50;;;;;;;7.27;100.00;97801.22;5067694;28;20580;-64
2023/02/19 00:16:38;;;;;;;4.95;2.95;;;;;;;7.40;100.00;97797.63;5059962;28;20110;-64
2023/02/19 00:19:09;;;;;;;5.68;3.33;;;;;;;7.39;100.00;97800.53;5057746;28;20052;-64
2023/02/19 00:21:36;;;;;;;3.90;2.30;;;;;;;7.45;100.00;97799.66;5057935;28;20040;-64
2023/02/19 00:24:05;;;;;;;4.70;2.70;;;;;;;7.39;100.00;97803.22;5062990;28;20072;-64
2023/02/19 00:26:33;;;;;;;4.63;2.47;;;;;;;7.50;100.00;97794.44;5057521;28;20443;-64
2023/02/19 00:29:01;;;;;;;5.57;2.70;;;;;;;7.53;100.00;97796.66;5062998;28;20095;-64
2023/02/19 00:31:32;;;;;;;4.80;2.70;;;;;;;7.50;100.00;97796.28;5068919;28;20029;-64
2023/02/19 00:34:01;;;;;;;5.80;2.78;;;;;;;7.49;100.00;97797.34;5057647;28;20055;-64
2023/02/19 00:36:29;;;;;;;4.43;2.60;;;;;;;7.58;100.00;97798.69;5065596;28;20512;-63
2023/02/19 00:38:56;;;;;;;4.22;2.50;;;;;;;7.62;100.00;97799.91;5067416;28;20044;-63
2023/02/19 00:41:23;;;;;;;5.03;2.20;;;;;;;7.53;100.00;97795.84;5062963;28;20488;-64
2023/02/19 00:43:53;;;;;;;3.85;2.38;;;;;;;7.61;100.00;97798.25;5064475;28;20097;-63
2023/02/19 00:46:23;;;;;;;3.00;1.98;;;;;;;7.67;100.00;97800.06;5057658;28;20040;-64
2023/02/19 00:48:51;;;;;;;4.32;2.22;;;;;;;7.61;100.00;97797.44;5063930;28;20043;-64
2023/02/19 00:51:19;;;;;;;4.53;2.30;;;;;;;7.47;100.00;97789.47;5060904;28;20079;-63
2023/02/19 00:53:46;;;;;;;3.90;2.13;;;;;;;7.54;100.00;97776.78;5062564;28;20040;-64
2023/02/19 00:56:13;;;;;;;4.32;2.50;;;;;;;7.40;100.00;97775.22;5059713;28;20087;-63
2023/02/19 00:58:39;;;;;;;4.45;2.42;;;;;;;7.35;100.00;97778.59;5062055;28;20064;-63
2023/02/19 01:01:07;;;;;;;4.45;2.40;;;;;;;7.46;100.00;97777.06;5057677;28;20434;-63
2023/02/19 01:03:34;;;;;;;3.60;2.22;;;;;;;7.47;100.00;97769.78;5065561;28;20270;-63
2023/02/19 01:06:03;;;;;;;3.78;2.38;;;;;;;7.39;100.00;97766.34;5058129;28;20170;-63
2023/02/19 01:08:30;;;;;;;5.30;2.50;;;;;;;7.33;100.00;97763.72;5065790;28;20526;-63
2023/02/19 01:10:59;;;;;;;4.20;2.58;;;;;;;7.29;100.00;97768.69;5056067;28;20033;-64
2023/02/19 01:13:27;;;;;;;4.90;2.72;;;;;;;7.22;100.00;97766.06;5063117;28;20029;-64
2023/02/19 01:16:05;;;;;;;5.50;2.67;;;;;;;7.33;100.00;97766.41;5061847;28;20072;-63
2023/02/19 01:18:33;;;;;;;4.88;3.20;;;;;;;7.24;100.00;97768.53;5057428;28;20037;-63
2023/02/19 01:21:04;;;;;;;4.80;3.00;;;;;;;7.39;100.00;97766.34;5059823;28;20111;-64
2023/02/19 01:23:30;;;;;;;4.40;2.50;;;;;;;7.44;100.00;97772.94;5059214;28;20113;-63
2023/02/19 01:25:57;;;;;;;4.30;2.63;;;;;;;7.46;100.00;97766.28;5060004;28;20052;-64
2023/02/19 01:28:23;;;;;;;4.25;2.70;;;;;;;7.51;100.00;97763.72;5058319;28;20041;-64
2023/02/19 01:30:50;;;;;;;4.18;2.60;;;;;;;7.61;100.00;97757.84;5066302;28;20135;-64
2023/02/19 01:33:16;;;;;;;5.10;2.58;;;;;;;7.61;100.00;97762.41;5060122;28;20047;-64
2023/02/19 01:35:42;;;;;;;3.72;2.40;;;;;;;7.46;100.00;97752.81;5066596;28;20082;-64
2023/02/19 01:38:09;;;;;;;5.65;2.45;;;;;;;7.49;100.00;97760.41;5053518;28;20041;-64
2023/02/19 01:40:35;;;;;;;3.50;1.90;;;;;;;7.57;100.00;97761.19;5063350;28;20085;-64
2023/02/19 01:43:02;;;;;;;3.83;2.30;;;;;;;7.57;100.00;97758.50;5055302;28;20032;-64
2023/02/19 01:45:41;;;;;;;3.85;2.40;;;;;;;7.46;100.00;97762.75;5057089;28;20102;-64
2023/02/19 01:48:36;;;;;;;3.78;2.40;;;;;;;7.42;100.00;97752.41;5062196;28;20072;-64
2023/02/19 01:51:11;;;;;;;6.80;2.80;;;;;;;7.31;100.00;97758.53;5060741;28;20052;-64
2023/02/19 01:53:43;;;;;;;5.15;2.30;;;;;;;7.30;100.00;97754.22;5063568;28;20457;-64
2023/02/19 01:56:13;;;;;;;5.70;2.65;;;;;;;7.30;100.00;97762.28;5069984;28;20329;-64
2023/02/19 01:58:40;;;;;;;5.30;2.50;;;;;;;7.32;100.00;97765.56;5064431;28;20207;-64
2023/02/19 02:01:08;;;;;;;4.72;2.33;;;;;;;7.46;100.00;97768.97;5058875;28;20037;-64
2023/02/19 02:03:37;;;;;;;5.07;2.03;;;;;;;7.39;100.00;97769.03;5068762;28;20769;-64
2023/02/19 02:06:14;;;;;;;3.60;2.05;;;;;;;7.34;100.00;97779.63;5071580;28;20044;-64
2023/02/19 02:11:26;;;;;;;3.60;1.98;;;;;;;7.22;100.00;97757.19;5065699;28;20032;-64
2023/02/19 02:13:53;;;;;;;3.97;2.17;;;;;;;7.19;100.00;97768.38;5055662;28;20103;-64
2023/02/19 02:16:26;;;;;;;3.42;1.70;;;;;;;7.14;100.00;97751.03;5069720;28;20513;-64
2023/02/19 02:19:16;;;;;;;4.93;2.30;;;;;;;7.07;100.00;97757.50;5062603;28;20036;-64
2023/02/19 02:22:11;;;;;;;4.15;2.20;;;;;;;7.01;100.00;97757.31;5060147;28;20047;-64
2023/02/19 02:25:34;;;;;;;7.80;2.58;;;;;;;6.90;100.00;97750.78;5062973;28;20059;-64
2023/02/19 02:28:19;;;;;;;6.15;2.20;;;;;;;6.92;100.00;97747.88;5039435;28;20095;-64
2023/02/19 02:31:01;;;;;;;7.32;2.20;;;;;;;6.89;100.00;97751.00;5024485;28;20053;-64
2023/02/19 02:34:02;;;;;;;3.42;2.00;;;;;;;6.90;100.00;97747.28;5043404;28;20049;-64
2023/02/19 02:36:36;;;;;;;3.05;1.80;;;;;;;7.01;100.00;97738.47;5068588;28;20044;-64
2023/02/19 02:39:08;;;;;;;2.95;1.55;;;;;;;7.03;100.00;97743.66;5062721;28;20040;-64
2023/02/19 02:42:26;;;;;;;3.72;1.60;;;;;;;6.94;100.00;97751.19;5063607;28;20503;-64
2023/02/19 02:47:40;;;;;;;3.35;1.83;;;;;;;6.93;100.00;97737.94;5058559;28;20043;-64
2023/02/19 02:50:14;;;;;;;4.22;1.92;;;;;;;6.88;100.00;97742.13;5061767;28;20055;-64
2023/02/19 02:55:36;;;;;;;3.38;1.92;;;;;;;6.84;100.00;97748.97;5057478;28;20447;-64
2023/02/19 02:58:03;;;;;;;3.90;2.20;;;;;;;6.80;100.00;97744.22;5060962;28;20045;-64
2023/02/19 03:03:22;;;;;;;3.40;2.10;;;;;;;6.80;100.00;97752.31;5068416;28;20068;-64
2023/02/19 03:05:53;;;;;;;3.70;1.80;;;;;;;6.94;100.00;97739.59;5054652;28;20068;-64
2023/02/19 03:08:20;;;;;;;3.08;1.52;;;;;;;7.01;100.00;97738.47;5067895;28;20314;-64
2023/02/19 03:19:17;;;;;;;2.42;1.30;;;;;;;7.01;100.00;97745.75;5061039;28;20043;-64
2023/02/19 03:19:26;;;;;;;1.75;0.93;;;;;;;6.90;100.00;97741.91;5038143;28;20032;-64
2023/02/19 03:21:58;;;;;;;0.82;0.47;;;;;;;6.88;100.00;97727.81;5055668;28;20041;-64
2023/02/19 03:27:18;;;;;;;;;;;;;;;6.70;100.00;97729.41;5068079;28;20041;-64
2023/02/19 03:29:50;;;;;;;1.17;0.60;;;;;;;6.74;100.00;97721.69;5062229;28;19927;-64
2023/02/19 03:32:23;;;;;;;2.22;0.70;;;;;;;6.66;100.00;97713.94;5058749;28;20033;-64
2023/02/19 03:34:56;;;;;;;0.63;0.50;;;;;;;6.73;100.00;97728.97;5071969;28;20036;-64
2023/02/19 03:37:38;;;;;;;0.73;0.38;;;;;;;6.81;100.00;97714.41;5067679;28;20046;-64
2023/02/19 03:40:05;;;;;;;0.73;0.40;;;;;;;6.74;100.00;97716.31;5065526;28;20051;-64
2023/02/19 03:43:05;;;;;;;0.47;0.25;;;;;;;6.79;100.00;97705.75;5058829;28;20028;-64
2023/02/19 03:45:57;;;;;;;0.50;0.30;;;;;;;6.85;100.00;97707.56;5064174;28;20036;-64
2023/02/19 03:48:40;;;;;;;0.57;0.40;;;;;;;6.82;100.00;97713.38;5064156;28;20036;-64
2023/02/19 03:51:42;;;;;;;0.63;0.30;;;;;;;6.93;100.00;97711.03;5063448;28;20048;-64
2023/02/19 03:54:27;;;;;;;1.92;0.20;;;;;;;7.07;100.00;97709.03;5059129;28;20512;-64
2023/02/19 03:57:01;;;;;;;0.17;0.17;;;;;;;6.89;100.00;97716.00;5065688;28;20066;-64
2023/02/19 03:59:40;;;;;;;1.25;0.20;;;;;;;6.83;100.00;97711.50;5061654;28;20845;-63
2023/02/19 04:02:38;;;;;;;0.35;0.30;;;;;;;6.83;100.00;97706.13;5066752;28;20067;-64
2023/02/19 04:05:20;;;;;;;0.20;0.20;;;;;;;6.90;100.00;97717.66;5061493;28;20060;-64
2023/02/19 04:07:49;;;;;;;0.40;0.30;;;;;;;6.92;100.00;97720.94;5059396;28;20108;-64
2023/02/19 04:10:20;;;;;;;0.20;0.10;;;;;;;6.88;100.00;97725.13;5059509;28;20064;-64
2023/02/19 04:13:09;;;;;;;0.30;0.30;;;;;;;6.90;100.00;97718.47;5059956;28;20477;-64
2023/02/19 04:15:41;;;;;;;0.45;0.28;;;;;;;6.92;100.00;97731.72;5072798;28;20452;-64
2023/02/19 04:18:13;;;;;;;0.70;0.30;;;;;;;6.92;100.00;97734.41;5063226;28;20222;-64
2023/02/19 04:20:43;;;;;;;0.32;0.20;;;;;;;7.06;100.00;97718.97;5059336;28;20060;-64
2023/02/19 04:23:15;;;;;;;0.20;0.20;;;;;;;6.96;100.00;97737.50;5053679;28;20034;-64
2023/02/19 04:25:44;;;;;;;;;;;;;;;6.86;100.00;97725.34;5065125;28;20394;-64
2023/02/19 04:28:12;;;;;;;0.47;0.30;;;;;;;6.72;100.00;97739.94;5063117;28;19970;-64
2023/02/19 04:30:39;;;;;;;0.80;0.38;;;;;;;6.71;100.00;97741.81;5068083;28;20093;-64
2023/02/19 04:33:06;;;;;;;0.50;0.30;;;;;;;6.77;100.00;97737.41;5062608;28;20029;-64
2023/02/19 04:35:32;;;;;;;0.88;0.40;;;;;;;6.69;100.00;97745.75;5067493;28;20110;-64
2023/02/19 04:37:58;;;;;;;0.32;0.30;;;;;;;6.64;100.00;97743.75;5068354;28;20120;-64
2023/02/19 04:40:25;;;;;;;0.60;0.40;;;;;;;6.70;100.00;97753.63;5064626;28;20574;-64
2023/02/19 04:42:51;;;;;;;0.77;0.43;;;;;;;6.66;100.00;97748.91;5062990;28;20551;-64
2023/02/19 04:45:18;;;;;;;0.75;0.50;;;;;;;6.76;100.00;97751.94;5061762;28;20040;-63
2023/02/19 04:47:44;;;;;;;0.73;0.47;;;;;;;6.76;100.00;97750.06;5064537;28;20133;-64
2023/02/19 04:50:11;;;;;;;0.57;0.40;;;;;;;6.76;100.00;97760.84;5062634;28;20055;-63
2023/02/19 04:52:38;;;;;;;0.90;0.40;;;;;;;6.77;100.00;97761.66;5073113;28;20095;-63
2023/02/19 04:55:05;;;;;;;0.70;0.40;;;;;;;6.80;100.00;97766.59;5059846;28;20136;-64
2023/02/19 04:57:32;;;;;;;0.57;0.38;;;;;;;6.62;100.00;97772.72;5061736;28;20449;-64
2023/02/19 04:59:58;;;;;;;1.00;0.60;;;;;;;6.65;100.00;97769.59;5065435;28;20045;-64
2023/02/19 05:02:25;;;;;;;2.25;0.70;;;;;;;6.67;100.00;97767.50;5056915;28;20090;-64
2023/02/19 05:04:51;;;;;;;0.47;0.40;;;;;;;6.69;100.00;97765.44;5058168;28;20111;-64
2023/02/19 05:07:18;;;;;;;1.00;0.52;;;;;;;6.74;100.00;97770.16;5062002;28;20040;-64
2023/02/19 05:09:44;;;;;;;0.90;0.40;;;;;;;6.78;100.00;97768.66;5062863;28;20124;-64
2023/02/19 05:12:11;;;;;;;0.70;0.40;;;;;;;6.78;100.00;97775.94;5056921;28;20490;-64
2023/02/19 05:14:37;;;;;;;0.47;0.30;;;;;;;6.84;100.00;97783.97;5057137;28;20052;-63
2023/02/19 05:17:03;;;;;;;0.30;0.30;;;;;;;6.74;100.00;97779.06;5058381;28;20656;-63
2023/02/19 05:19:30;;;;;;;0.60;0.40;;;;;;;6.68;100.00;97785.31;5061619;28;20135;-64
2023/02/19 05:21:56;;;;;;;0.98;0.60;;;;;;;6.68;100.00;97777.25;5062906;28;20086;-64
2023/02/19 05:24:23;;;;;;;0.30;0.30;;;;;;;6.70;100.00;97777.84;5057350;28;20539;-64
2023/02/19 05:26:50;;;;;;;0.73;0.40;;;;;;;6.70;100.00;97768.94;5053041;28;20033;-64
2023/02/19 05:29:16;;;;;;;0.88;0.45;;;;;;;6.67;100.00;97764.00;5057022;28;20041;-64
2023/02/19 05:31:43;;;;;;;0.30;0.30;;;;;;;6.68;100.00;97771.03;5069813;28;20036;-64
2023/02/19 05:34:09;;;;;;;0.20;0.20;;;;;;;6.71;100.00;97773.28;5062666;28;20024;-64
2023/02/19 05:36:36;;;;;;;0.60;0.30;;;;;;;6.66;100.00;97778.50;5058540;28;20121;-63
2023/02/19 05:39:05;;;;;;;0.20;0.20;;;;;;;6.63;100.00;97780.56;5060448;28;20044;-63
2023/02/19 05:41:32;;;;;;;0.20;0.20;;;;;;;6.67;100.00;97789.03;5063603;28;20403;-64
2023/02/19 05:43:58;;;;;;;0.52;0.28;;;;;;;6.66;100.00;97797.34;5068167;28;20102;-64
2023/02/19 05:46:28;;;;;;;0.25;0.20;;;;;;;6.76;100.00;97806.59;5068348;28;20067;-64
2023/02/19 05:48:56;;;;;;;0.03;0.03;;;;;;;6.79;100.00;97794.56;5063810;28;20991;-63
2023/02/19 05:51:25;;;;;;;0.10;0.10;;;;;;;6.69;100.00;97805.81;5064568;28;20469;-63
2023/02/19 05:53:52;;;;;;;0.28;0.25;;;;;;;6.70;100.00;97803.91;5057912;28;20517;-63
2023/02/19 05:56:24;;;;;;;0.60;0.30;;;;;;;6.81;100.00;97803.22;5063201;28;20416;-63
2023/02/19 05:58:54;;;;;;;1.25;0.40;;;;;;;6.81;100.00;97805.94;5061061;28;20086;-64
2023/02/19 06:01:23;;;;;;;1.92;0.40;;;;;;;6.76;100.00;97811.97;5065137;28;20048;-64
2023/02/19 06:03:49;;;;;;;1.10;0.50;;;;;;;6.75;100.00;97807.59;5058938;28;20033;-64
2023/02/19 06:06:17;;;;;;;0.73;0.50;;;;;;;6.85;100.00;97809.00;5060065;28;20044;-64
2023/02/19 06:08:44;;;;;;;1.00;0.55;;;;;;;6.76;100.00;97813.84;5067401;28;20123;-64
2023/02/19 06:11:11;;;;;;;0.57;0.40;;;;;;;6.68;100.00;97787.16;5054756;28;20508;-64
2023/02/19 06:13:38;;;;;;;0.50;0.33;;;;;;;6.72;100.00;97797.31;5060588;28;20048;-64
2023/02/19 06:16:06;;;;;;;1.07;0.40;;;;;;;6.84;100.00;97797.44;5066273;28;20049;-64
2023/02/19 06:18:33;;;;;;;0.98;0.50;;;;;;;6.79;100.00;97802.63;5057843;28;20068;-64
2023/02/19 06:21:01;;;;;;;1.05;0.65;;;;;;;6.85;100.00;97812.53;5050945;28;20434;-64
2023/02/19 06:23:28;;;;;;;0.95;0.60;;;;;;;6.77;100.00;97807.41;5060448;28;20561;-64
2023/02/19 06:26:13;;;;;;;1.15;0.80;;;;;;;6.84;100.00;97810.03;5065257;28;20047;-64
2023/02/19 06:28:41;;;;;;;1.30;0.60;;;;;;;6.81;100.00;97810.50;5070582;28;20060;-64
2023/02/19 06:31:09;;;;;;;0.70;0.57;;;;;;;6.90;100.00;97815.38;5060449;28;20375;-63
2023/02/19 06:33:39;;;;;;;1.20;0.70;;;;;;;6.82;100.00;97823.72;5059992;28;20032;-59
2023/02/19 06:36:09;;;;;;;2.25;0.82;;;;;;;6.80;100.00;97836.59;5065710;28;20045;-59
2023/02/19 06:38:35;;;;;;;2.17;1.00;;;;;;;6.84;100.00;97834.28;5064493;28;20515;-59
2023/02/19 06:41:04;;;;;;;1.85;0.90;;;;;;;6.86;100.00;97830.31;5063482;28;20487;-60
2023/02/19 06:43:32;;;;;;;1.95;1.05;;;;;;;6.82;100.00;97826.41;5068073;28;20539;-60
2023/02/19 06:46:00;;;;;;;2.25;1.02;;;;;;;6.85;100.00;97836.75;5065710;28;20094;-59
2023/02/19 06:48:28;;;;;;;3.05;1.40;;;;;;;6.88;100.00;97849.78;5062516;28;20043;-60
2023/02/19 06:50:55;;;;;;;1.65;0.80;;;;;;;6.90;100.00;97846.88;5069609;28;20036;-60
2023/02/19 06:53:21;;;;;;;4.20;1.40;;;;;;;6.75;100.00;97847.97;5065946;28;20106;-60
2023/02/19 06:55:59;;;;;;;2.00;1.15;;;;;;;6.74;100.00;97845.50;5071777;28;20556;-58
2023/02/19 06:58:26;;;;;;;1.95;1.00;;;;;;;6.75;100.00;97858.75;5062317;28;20205;-60
2023/02/19 07:00:53;;;;;;;3.17;1.13;;;;;;;6.79;100.00;97863.72;5060068;28;20487;-60
2023/02/19 07:03:20;;;;;;;3.05;1.23;;;;;;;6.83;100.00;97873.00;5057633;28;20099;-58
2023/02/19 07:05:46;;;;;;;2.47;1.20;;;;;;;6.80;100.00;97873.44;5069148;28;20123;-59
2023/02/19 07:08:13;;;;;;;2.38;1.23;;;;;;;6.74;100.00;97875.09;5060575;28;20098;-60
2023/02/19 07:10:39;;;;;;;1.83;0.98;;;;;;;6.72;100.00;97883.41;5055087;28;20045;-59
2023/02/19 07:13:06;;;;;;;1.33;0.80;;;;;;;6.82;100.00;97874.84;5057170;28;20041;-60
2023/02/19 07:15:32;;;;;;;2.58;1.63;;;;;;;6.87;100.00;97885.00;5061685;28;20560;-60
2023/02/19 07:17:59;;;;;;;2.00;1.00;;;;;;;6.81;100.00;97872.41;5059099;28;20064;-60
2023/02/19 07:20:25;;;;;;;2.25;1.25;;;;;;;6.78;100.00;97868.25;5063823;28;20048;-60
2023/02/19 07:22:52;;;;;;;2.50;1.48;;;;;;;6.85;100.00;97878.97;5060485;28;20203;-61
2023/02/19 07:25:19;;;;;;;3.08;1.40;;;;;;;6.84;100.00;97878.19;5062177;28;20048;-59
2023/02/19 07:27:45;;;;;;;2.80;1.50;;;;;;;6.83;100.00;97871.16;5060167;28;20127;-58
2023/02/19 07:30:12;;;;;;;2.10;1.33;;;;;;;6.88;100.00;97865.94;5066260;28;20050;-59
2023/02/19 07:32:41;;;;;;;2.90;1.58;;;;;;;7.01;100.00;97885.75;5057313;28;20040;-60
2023/02/19 07:35:08;;;;;;;2.63;1.50;;;;;;;6.99;100.00;97874.34;5060093;28;20535;-60
2023/02/19 07:37:34;;;;;;;3.28;1.60;;;;;;;7.00;100.00;97879.53;5064776;28;20118;-60
2023/02/19 07:40:02;;;;;;;5.75;1.60;;;;;;;7.09;100.00;97892.75;5063169;28;20049;-60
2023/02/19 07:42:29;;;;;;;2.05;1.10;;;;;;;7.06;100.00;97887.78;5060755;28;20126;-59
2023/02/19 07:44:55;;;;;;;2.30;1.10;;;;;;;7.14;100.00;97912.59;5064073;28;20113;-58
2023/02/19 07:47:26;;;;;;;2.97;1.15;;;;;;;7.14;100.00;97898.28;5059531;28;20049;-60
2023/02/19 07:49:52;;;;;;;2.72;1.30;;;;;;;7.19;100.00;97903.03;5066797;28;20044;-57
2023/02/19 07:52:19;;;;;;;3.60;1.05;;;;;;;7.23;100.00;97909.66;5058055;28;20045;-60
2023/02/19 07:54:45;;;;;;;2.38;1.27;;;;;;;7.24;99.44;97911.28;5056443;28;20562;-59
2023/02/19 07:57:12;;;;;;;1.75;1.00;;;;;;;7.22;100.00;97926.84;5059340;28;20653;-59
2023/02/19 07:59:39;;;;;;;2.10;0.90;;;;;;;7.23;99.67;97940.09;5058684;28;20055;-59
2023/02/19 08:05:05;;;;;;;3.28;1.25;;;;;;;7.19;100.00;97921.91;5064723;28;20530;-60
2023/02/19 08:07:33;;;;;;;1.98;1.00;;;;;;;7.15;100.00;97932.28;5062484;28;20104;-60
2023/02/19 08:15:43;;;;;;;2.88;1.05;;;;;;;7.14;100.00;97944.91;5058549;28;20037;-59
2023/02/19 08:18:10;;;;;;;3.08;1.67;;;;;;;7.29;100.00;97941.09;5059411;28;20499;-60
2023/02/19 08:20:36;;;;;;;1.40;0.70;;;;;;;7.35;100.00;97939.41;5060143;28;20455;-60
2023/02/19 08:23:03;;;;;;;1.85;0.70;;;;;;;7.46;100.00;97937.88;5061026;28;20492;-59
2023/02/19 08:25:30;;;;;;;1.35;0.60;;;;;;;7.42;100.00;97950.97;5060919;28;20043;-59
2023/02/19 08:27:56;;;;;;;1.60;0.60;;;;;;;7.39;99.67;97959.47;5057646;28;20135;-59
2023/02/19 08:30:22;;;;;;;1.45;0.70;;;;;;;7.22;100.00;97972.66;5062539;28;20534;-58
2023/02/19 08:32:49;;;;;;;1.63;0.80;;;;;;;7.25;100.00;97981.13;5060079;28;20463;-59
2023/02/19 08:35:16;;;;;;;2.38;0.88;;;;;;;7.18;100.00;97972.22;5061163;28;20431;-60
2023/02/19 08:37:43;;;;;;;2.42;0.70;;;;;;;7.18;100.00;97984.88;5057505;28;20374;-59
2023/02/19 08:40:09;;;;;;;1.48;0.75;;;;;;;7.31;100.00;97986.69;5052797;28;20040;-59
2023/02/19 08:42:36;;;;;;;2.40;1.15;;;;;;;7.12;100.00;97987.38;5066027;28;20052;-57
2023/02/19 08:45:03;;;;;;;1.98;0.98;;;;;;;7.10;100.00;97975.16;5059319;28;20054;-59
2023/02/19 08:47:29;;;;;;;2.10;1.08;;;;;;;7.09;100.00;97984.31;5061606;28;20131;-59
2023/02/19 08:49:56;;;;;;;2.92;1.52;;;;;;;7.02;100.00;97990.56;5058543;28;20037;-59
2023/02/19 08:52:23;;;;;;;3.35;1.30;;;;;;;7.11;100.00;97983.03;5055355;28;20051;-60
2023/02/19 08:54:49;;;;;;;3.38;1.50;;;;;;;7.03;100.00;97980.59;5054308;28;20389;-60
2023/02/19 08:57:16;;;;;;;3.03;1.70;;;;;;;7.07;100.00;97975.63;5057108;28;20044;-59
2023/02/19 08:59:43;;;;;;;2.28;1.17;;;;;;;7.21;100.00;97977.19;5051679;28;20482;-59
2023/02/19 09:02:11;;;;;;;3.53;1.35;;;;;;;7.30;99.43;97980.47;5055483;28;20041;-57
2023/02/19 09:04:38;;;;;;;5.70;1.23;;;;;;;7.35;98.29;97983.34;5051914;28;20072;-60
2023/02/19 09:07:09;;;;;;;3.85;1.33;;;;;;;7.53;96.87;97969.13;5055986;28;20044;-60
2023/02/19 09:09:37;;;;;;;5.75;1.50;;;;;;;7.39;97.61;97973.78;5054983;28;20052;-61
2023/02/19 09:12:07;;;;;;;3.20;1.20;;;;;;;7.47;97.86;97982.63;5052085;28;20056;-59
2023/02/19 09:14:34;;;;;;;2.78;1.10;;;;;;;7.61;95.91;97986.09;5056694;28;20105;-59
2023/02/19 09:17:03;;;;;;;2.15;1.23;;;;;;;7.61;96.19;97995.00;5055518;28;20042;-64
2023/02/19 09:19:30;;;;;;;3.45;1.42;;;;;;;7.63;94.74;97984.81;5057824;28;20064;-64
2023/02/19 09:21:57;;;;;;;3.47;1.33;;;;;;;7.73;94.44;97996.97;5060061;28;20135;-59
2023/02/19 09:24:24;;;;;;;1.95;0.95;;;;;;;7.86;93.14;98006.88;5058688;28;20140;-60
2023/02/19 09:26:52;;;;;;;1.75;1.00;;;;;;;7.81;92.99;98002.13;5058667;28;20070;-61
2023/02/19 09:29:20;;;;;;;3.92;1.00;;;;;;;7.80;92.31;98006.69;5066034;28;20427;-60
2023/02/19 09:31:47;;;;;;;4.20;1.05;;;;;;;7.78;90.02;98005.28;5061060;28;20059;-61
2023/02/19 09:34:13;;;;;;;5.60;1.17;;;;;;;8.02;90.27;97997.41;5059184;28;20491;-61
2023/02/19 09:36:40;;;;;;;1.65;0.70;;;;;;;8.05;90.46;98005.06;5058136;28;20136;-61
2023/02/19 09:39:09;;;;;;;2.03;0.70;;;;;;;7.99;88.48;98001.38;5060215;28;20068;-61
2023/02/19 09:41:45;;;;;;;2.25;0.90;;;;;;;7.97;89.09;98011.56;5056917;28;20045;-61
2023/02/19 09:44:18;;;;;;;3.60;1.05;;;;;;;8.11;88.33;98024.94;5055791;28;20106;-60
2023/02/19 09:46:48;;;;;;;1.90;1.02;;;;;;;7.97;90.24;98032.28;5055599;28;20064;-60
2023/02/19 09:49:37;;;;;;;4.57;1.05;;;;;;;8.00;91.34;98043.47;5058154;28;20041;-60
2023/02/19 09:52:13;;;;;;;2.95;1.00;;;;;;;7.98;90.85;98039.34;5058486;28;20337;-60
2023/02/19 09:54:41;;;;;;;2.85;1.00;;;;;;;8.12;89.38;98040.91;5056584;28;20049;-60
2023/02/19 09:57:15;;;;;;;4.50;0.93;;;;;;;7.91;90.92;98034.00;5057761;28;20491;-60
2023/02/19 09:59:50;;;;;;;2.47;1.08;;;;;;;7.98;91.83;98025.84;5057173;28;20129;-59
2023/02/19 10:02:22;;;;;;;2.72;1.05;;;;;;;7.96;90.77;98034.16;5058553;28;20072;-60
2023/02/19 10:04:50;;;;;;;4.43;1.00;;;;;;;8.11;91.12;98030.34;5058353;28;20442;-59
2023/02/19 10:07:20;;;;;;;3.53;1.10;;;;;;;8.12;90.88;98016.63;5057749;28;20491;-58
2023/02/19 10:09:51;;;;;;;2.17;1.15;;;;;;;8.03;88.35;98028.72;5058297;28;20594;-58
2023/02/19 10:12:24;;;;;;;2.03;0.70;;;;;;;8.23;89.45;98019.66;5056962;28;20135;-60
2023/02/19 10:14:58;;;;;;;4.88;1.48;;;;;;;8.26;88.28;98040.78;5058187;28;20421;-60
2023/02/19 10:17:30;;;;;;;4.28;1.50;;;;;;;8.33;88.22;98036.97;5016536;28;20585;-60
2023/02/19 10:19:57;;;;;;;6.10;1.45;;;;;;;8.46;86.98;98041.44;5043309;28;21116;-63
2023/02/19 10:22:24;;;;;;;3.35;1.00;;;;;;;8.32;87.86;98039.91;5034095;28;20135;-62
2023/02/19 10:24:54;;;;;;;1.10;0.73;;;;;;;8.27;88.53;98042.44;5061686;28;20101;-62
2023/02/19 10:27:24;;;;;;;1.38;0.75;;;;;;;8.32;86.29;98042.59;5054826;28;20063;-62
2023/02/19 10:29:53;;;;;;;2.65;0.82;;;;;;;8.44;86.37;98048.13;5047354;28;20343;-63
2023/02/19 10:32:25;;;;;;;1.98;0.73;;;;;;;8.54;85.10;98058.41;5068920;28;20132;-61
2023/02/19 10:35:12;;;;;;;2.90;0.60;;;;;;;8.56;85.14;98059.84;5058224;28;20082;-60
2023/02/19 10:37:45;;;;;;;2.53;0.80;;;;;;;8.45;85.35;98068.66;5070849;28;20531;-61
2023/02/19 10:40:20;;;;;;;2.47;0.82;;;;;;;8.51;84.78;98072.34;5069370;28;20040;-62
2023/02/19 10:42:49;;;;;;;1.58;0.70;;;;;;;8.45;86.19;98061.38;5068870;28;20102;-60
2023/02/19 10:45:34;;;;;;;2.20;1.20;;;;;;;8.54;85.63;98064.66;5068885;28;20046;-62
2023/02/19 10:48:01;;;;;;;2.03;0.80;;;;;;;8.55;86.35;98077.09;5066544;28;20071;-63
2023/02/19 10:50:38;;;;;;;6.38;0.90;;;;;;;8.45;85.96;98074.88;5063074;28;20044;-62
2023/02/19 10:53:04;;;;;;;5.13;1.17;;;;;;;8.37;85.97;98079.72;5065255;28;20252;-62
2023/02/19 10:55:34;;;;;;;2.95;1.02;;;;;;;8.52;85.43;98082.91;5040363;28;20044;-60
2023/02/19 10:58:41;;;;;;;4.38;0.90;;;;;;;8.49;82.45;98096.03;5052794;28;20527;-62
2023/02/19 11:01:19;;;;;;;3.47;0.60;;;;;;;8.54;83.68;98097.03;5057384;28;20593;-62
2023/02/19 11:03:51;;;;;;;4.22;1.10;;;;;;;8.50;84.59;98100.38;5066285;28;20032;-62
2023/02/19 11:06:20;;;;;;;;;;;;;;;8.42;85.22;98096.91;5069210;28;20098;-62
2023/02/19 11:08:53;;;;;;;3.03;0.85;;;;;;;8.27;85.68;98097.25;5026326;28;20398;-61
2023/02/19 11:11:22;;;;;;;1.80;0.82;;;;;;;8.44;86.83;98092.09;5050020;28;20044;-61
2023/02/19 11:13:49;;;;;;;3.42;1.17;;;;;;;8.30;88.27;98094.09;5074330;28;20098;-62
2023/02/19 11:16:16;;;;;;;3.85;1.05;;;;;;;8.12;89.16;98104.81;5063274;28;20416;-61
2023/02/19 11:18:43;;;;;;;5.13;1.50;;;;;;;7.88;90.16;98104.53;5061684;28;20055;-60
2023/02/19 11:21:31;;;;;;;3.05;1.00;;;;;;;7.95;90.65;98097.22;5066487;28;20125;-60
2023/02/19 11:24:02;;;;;;;2.60;0.82;;;;;;;8.16;89.63;98098.78;5067039;28;20497;-61
2023/02/19 11:26:34;;;;;;;2.17;1.00;;;;;;;8.06;90.78;98104.63;5064228;28;20494;-56
2023/02/19 11:29:10;;;;;;;;;;;;;;;8.00;91.49;98097.41;5061116;28;20044;-58
2023/02/19 11:31:37;;;;;;;3.22;0.75;;;;;;;8.08;89.50;98090.94;5035166;28;20437;-61
2023/02/19 11:34:12;;;;;;;2.50;1.02;;;;;;;8.08;91.10;98080.16;5054785;28;20423;-60
2023/02/19 11:36:40;;;;;;;5.10;1.60;;;;;;;8.26;89.40;98076.69;5064591;28;20075;-61
2023/02/19 11:39:18;;;;;;;3.85;1.05;;;;;;;8.49;86.85;98061.78;5053598;28;20049;-60
2023/02/19 11:42:12;;;;;;;3.72;0.90;;;;;;;8.73;86.66;98077.38;5069674;28;20080;-61
2023/02/19 11:45:05;;;;;;;4.72;1.00;;;;;;;8.85;83.58;98072.91;5067589;28;20037;-61
2023/02/19 11:48:00;;;;;;;5.03;0.80;;;;;;;8.68;84.66;98073.47;5062422;28;20440;-62
2023/02/19 11:50:47;;;;;;;5.57;1.35;;;;;;;8.75;85.46;98076.09;5060640;28;20462;-62
2023/02/19 11:53:32;;;;;;;2.70;1.20;;;;;;;8.77;83.92;98083.97;5060924;28;20098;-61
2023/02/19 11:56:32;;;;;;;2.35;1.00;;;;;;;8.79;83.81;98089.97;5068352;28;20491;-60
2023/02/19 11:59:11;;;;;;;2.97;0.90;;;;;;;8.86;83.74;98098.84;5064193;28;20041;-61
2023/02/19 12:02:05;;;;;;;1.85;0.90;;;;;;;8.74;82.93;98114.13;5067944;28;20447;-61
2023/02/19 12:04:37;;;;;;;2.28;0.90;;;;;;;8.54;83.33;98117.81;5066885;28;20526;-60
2023/02/19 12:07:43;;;;;;;3.95;0.73;;;;;;;8.76;82.84;98102.03;5066811;28;20044;-59
2023/02/19 12:10:28;;;;;;;4.05;0.80;;;;;;;8.86;83.50;98101.53;5058413;28;20051;-60
2023/02/19 12:13:03;;;;;;;3.20;1.00;;;;;;;8.83;84.37;98110.09;5061370;28;20074;-61
2023/02/19 12:15:52;;;;;;;2.53;0.90;;;;;;;8.66;83.74;98105.25;5061334;28;20163;-62
2023/02/19 12:18:33;;;;;;;4.70;0.88;;;;;;;8.87;83.25;98094.25;5065457;28;20091;-62
2023/02/19 12:21:24;;;;;;;2.70;1.10;;;;;;;8.69;83.76;98085.91;5063685;28;20044;-61
2023/02/19 12:23:56;;;;;;;2.88;1.02;;;;;;;8.78;82.99;98082.94;5067475;28;20075;-61
2023/02/19 12:26:28;;;;;;;5.22;1.17;;;;;;;8.76;83.41;98071.50;5058640;28;20048;-60